createdAt,value
2023-01-18T00:02:47.306Z,-3.72
2023-01-18T00:08:11.108Z,-3.68
2023-01-18T00:13:33.899Z,-3.66
2023-01-18T00:18:58.848Z,-3.81
2023-01-18T00:24:23.230Z,-3.90
2023-01-18T00:29:45.524Z,-3.87
2023-01-18T00:35:08.812Z,-3.83
2023-01-18T00:40:32.557Z,-3.60
2023-01-18T00:45:55.092Z,-3.62
2023-01-18T00:51:18.808Z,-3.74
2023-01-18T00:56:42.114Z,-3.65
2023-01-18T01:02:04.933Z,-3.64
2023-01-18T01:07:27.895Z,-3.66
2023-01-18T01:13:08.223Z,-3.64
2023-01-18T01:18:49.792Z,-3.70
2023-01-18T01:24:30.181Z,-3.69
2023-01-18T01:29:53.087Z,-3.69
2023-01-18T01:35:15.873Z,-3.64
2023-01-18T01:40:38.569Z,-3.50
2023-01-18T01:46:01.054Z,-3.48
2023-01-18T01:51:24.933Z,-3.51
2023-01-18T01:56:48.880Z,-3.42
2023-01-18T02:02:12.089Z,-3.53
2023-01-18T02:07:35.018Z,-3.62
2023-01-18T02:13:00.828Z,-3.69
2023-01-18T02:18:34.172Z,-3.64
2023-01-18T02:24:27.481Z,-3.55
2023-01-18T02:30:22.149Z,-3.24
2023-01-18T02:36:06.992Z,-3.28
2023-01-18T02:42:00.120Z,-3.21
2023-01-18T02:53:02.052Z,-2.97
2023-01-18T02:58:35.229Z,-3.05
2023-01-18T03:04:02.422Z,-2.93
2023-01-18T03:09:27.520Z,-2.95
2023-01-18T03:15:30.903Z,-2.93
2023-01-18T03:20:58.497Z,-2.90
2023-01-18T03:26:25.209Z,-2.66
2023-01-18T03:32:19.278Z,-2.53
2023-01-18T03:37:46.422Z,-2.39
2023-01-18T03:43:23.244Z,-2.28
2023-01-18T03:48:46.856Z,-2.24
2023-01-18T03:54:28.697Z,-2.15
2023-01-18T03:59:56.242Z,-2.12
2023-01-18T04:05:19.407Z,-2.14
2023-01-18T04:10:41.707Z,-2.09
2023-01-18T04:16:05.213Z,-2.09
2023-01-18T04:21:27.833Z,-2.06
2023-01-18T04:26:50.741Z,-2.10
2023-01-18T04:32:13.622Z,-2.06
2023-01-18T04:37:37.608Z,-2.02
2023-01-18T04:43:06.814Z,-2.00
2023-01-18T04:48:29.994Z,-1.97
2023-01-18T04:53:54.326Z,-1.96
2023-01-18T04:59:18.884Z,-1.95
2023-01-18T05:04:42.351Z,-1.92
2023-01-18T05:10:04.742Z,-1.83
2023-01-18T05:15:27.787Z,-1.72
2023-01-18T05:20:50.113Z,-1.63
2023-01-18T05:26:15.292Z,-1.60
2023-01-18T05:31:38.267Z,-1.65
2023-01-18T05:37:01.187Z,-1.68
2023-01-18T05:42:24.079Z,-1.72
2023-01-18T05:47:46.419Z,-1.74
2023-01-18T05:53:11.398Z,-1.75
2023-01-18T05:58:34.268Z,-1.71
2023-01-18T06:03:56.932Z,-1.72
2023-01-18T06:09:19.342Z,-1.72
2023-01-18T06:14:41.933Z,-1.69
2023-01-18T06:20:04.376Z,-1.63
2023-01-18T06:25:30.744Z,-1.66
2023-01-18T06:30:53.162Z,-1.63
2023-01-18T06:36:16.319Z,-1.64
2023-01-18T06:41:40.245Z,-1.58
2023-01-18T06:47:03.403Z,-1.61
2023-01-18T06:52:25.800Z,-1.60
2023-01-18T06:57:48.929Z,-1.59
2023-01-18T07:03:11.284Z,-1.65
2023-01-18T07:08:36.778Z,-1.62
2023-01-18T07:13:59.574Z,-1.56
2023-01-18T07:19:22.397Z,-1.49
2023-01-18T07:24:45.880Z,-1.46
2023-01-18T07:30:09.268Z,-1.37
2023-01-18T07:35:33.760Z,-1.30
2023-01-18T07:40:56.324Z,-1.24
2023-01-18T07:46:22.035Z,-1.16
2023-01-18T07:51:45.243Z,-1.13
2023-01-18T07:57:08.188Z,-1.07
2023-01-18T08:02:30.997Z,-1.04
2023-01-18T08:07:54.010Z,-1.01
2023-01-18T08:13:18.691Z,-0.97
2023-01-18T08:18:42.610Z,-0.92
2023-01-18T08:24:07.842Z,-0.85
2023-01-18T08:29:30.148Z,-0.78
2023-01-18T08:34:52.959Z,-0.71
2023-01-18T08:40:16.587Z,-0.66
2023-01-18T08:45:40.155Z,-0.59
2023-01-18T08:51:04.133Z,-0.51
2023-01-18T08:56:27.365Z,-0.41
2023-01-18T09:01:50.027Z,-0.31
2023-01-18T09:07:12.741Z,-0.20
2023-01-18T09:12:35.630Z,-0.12
2023-01-18T09:17:59.557Z,-0.04
2023-01-18T09:23:23.218Z,0.05
2023-01-18T09:28:46.633Z,0.19
2023-01-18T09:34:18.862Z,0.28
2023-01-18T09:39:50.811Z,0.38
2023-01-18T09:45:07.259Z,0.40
2023-01-18T09:50:34.212Z,0.46
2023-01-18T09:56:12.877Z,0.50
2023-01-18T10:01:42.974Z,0.65
2023-01-18T10:07:13.208Z,0.69
2023-01-18T10:12:53.151Z,0.76
2023-01-18T10:18:16.258Z,0.77
2023-01-18T10:23:58.446Z,0.68
2023-01-18T10:29:49.724Z,0.60
2023-01-18T10:35:14.573Z,0.61
2023-01-18T10:40:37.535Z,0.62
2023-01-18T10:46:00.441Z,0.64
2023-01-18T10:51:35.563Z,0.71
2023-01-18T10:57:10.117Z,0.75
2023-01-18T11:02:44.076Z,0.78
2023-01-18T11:08:36.403Z,0.78
2023-01-18T11:14:02.046Z,0.71
2023-01-18T11:19:30.071Z,0.74
2023-01-18T11:24:52.735Z,0.76
2023-01-18T11:30:29.721Z,0.69
2023-01-18T11:36:00.049Z,0.60
2023-01-18T11:41:29.182Z,0.62
2023-01-18T11:47:11.185Z,0.53
2023-01-18T11:53:04.797Z,0.41
2023-01-18T11:58:40.518Z,0.37
2023-01-18T12:04:07.770Z,0.34
2023-01-18T12:09:47.430Z,0.23
2023-01-18T12:15:54.023Z,0.16
2023-01-18T12:21:47.348Z,0.09
2023-01-18T12:27:26.024Z,0.20
2023-01-18T12:33:42.518Z,0.15
2023-01-18T12:39:04.772Z,0.31
2023-01-18T12:44:38.293Z,0.25
2023-01-18T12:50:08.977Z,0.29
2023-01-18T12:55:40.026Z,0.28
2023-01-18T13:01:07.596Z,0.32
2023-01-18T13:06:32.059Z,0.37
2023-01-18T13:11:58.765Z,0.36
2023-01-18T13:17:54.210Z,0.38
2023-01-18T13:23:37.007Z,0.40
2023-01-18T13:29:20.202Z,0.43
2023-01-18T13:35:19.711Z,0.61
2023-01-18T13:40:43.900Z,0.51
2023-01-18T13:46:23.006Z,0.54
2023-01-18T13:52:02.001Z,0.55
2023-01-18T13:57:27.635Z,0.58
2023-01-18T14:02:56.678Z,0.59
2023-01-18T14:08:15.319Z,0.63
2023-01-18T14:14:01.316Z,0.60
2023-01-18T14:19:31.036Z,0.55
2023-01-18T14:25:22.290Z,0.53
2023-01-18T14:30:50.037Z,0.51
2023-01-18T14:36:18.150Z,0.49
2023-01-18T14:41:44.424Z,0.45
2023-01-18T14:47:23.558Z,0.39
2023-01-18T14:52:40.351Z,0.39
2023-01-18T14:58:19.420Z,0.37
2023-01-18T15:03:43.910Z,0.37
2023-01-18T15:09:09.941Z,0.35
2023-01-18T15:14:38.975Z,0.35
2023-01-18T15:20:05.924Z,0.33
2023-01-18T15:25:41.533Z,0.31
2023-01-18T15:31:14.688Z,0.32
2023-01-18T15:36:37.260Z,0.28
2023-01-18T15:42:02.731Z,0.26
2023-01-18T15:47:43.056Z,0.23
2023-01-18T15:53:14.364Z,0.20
2023-01-18T15:58:56.296Z,0.22
2023-01-18T16:04:29.605Z,0.21
2023-01-18T16:09:51.953Z,0.19
2023-01-18T16:15:16.206Z,0.17
2023-01-18T16:20:39.283Z,0.18
2023-01-18T16:26:09.794Z,0.22
2023-01-18T16:31:33.789Z,0.28
2023-01-18T16:36:56.687Z,0.28
2023-01-18T16:42:29.662Z,0.31
2023-01-18T16:47:46.465Z,0.31
2023-01-18T16:53:09.327Z,0.32
2023-01-18T16:58:33.891Z,0.35
2023-01-18T17:03:56.895Z,0.39
2023-01-18T17:09:47.314Z,0.39
2023-01-18T17:15:01.480Z,0.39
2023-01-18T17:20:29.356Z,0.41
2023-01-18T17:25:51.717Z,0.37
2023-01-18T17:31:14.058Z,0.41
2023-01-18T17:36:36.521Z,0.34
2023-01-18T17:41:59.007Z,0.28
2023-01-18T17:47:24.626Z,0.21
2023-01-18T17:52:48.187Z,0.13
2023-01-18T17:58:10.625Z,0.18
2023-01-18T18:03:32.973Z,0.16
2023-01-18T18:08:56.140Z,0.12
2023-01-18T18:14:18.468Z,0.11
2023-01-18T18:19:42.090Z,0.04
2023-01-18T18:25:05.225Z,-0.05
2023-01-18T18:30:28.928Z,-0.16
2023-01-18T18:35:51.551Z,-0.23
2023-01-18T18:41:17.425Z,-0.34
2023-01-18T18:46:40.499Z,-0.36
2023-01-18T18:52:03.287Z,-0.42
2023-01-18T18:57:27.032Z,-0.46
2023-01-18T19:02:49.895Z,-0.47
2023-01-18T19:08:12.743Z,-0.47
2023-01-18T19:13:35.176Z,-0.48
2023-01-18T19:18:57.447Z,-0.47
2023-01-18T19:24:19.979Z,-0.48
2023-01-18T19:29:42.917Z,-0.48
2023-01-18T19:35:05.762Z,-0.54
2023-01-18T19:40:29.616Z,-0.59
2023-01-18T19:45:52.578Z,-0.62
2023-01-18T19:51:23.266Z,-0.64
2023-01-18T19:56:43.517Z,-0.67
2023-01-18T20:02:06.171Z,-0.73
2023-01-18T20:07:29.398Z,-0.71
2023-01-18T20:12:52.200Z,-0.67
2023-01-18T20:18:14.711Z,-0.65
2023-01-18T20:23:37.897Z,-0.64
2023-01-18T20:29:02.505Z,-0.69
2023-01-18T20:34:25.557Z,-0.70
2023-01-18T20:39:47.894Z,-0.71
2023-01-18T20:45:10.241Z,-0.71
2023-01-18T20:50:32.643Z,-0.69
2023-01-18T20:55:55.898Z,-0.67
2023-01-18T21:01:27.619Z,-0.65
2023-01-18T21:06:51.079Z,-0.62
2023-01-18T21:12:13.577Z,-0.56
2023-01-18T21:17:36.135Z,-0.53
2023-01-18T21:22:58.531Z,-0.50
2023-01-18T21:28:20.949Z,-0.46
2023-01-18T21:33:44.922Z,-0.38
2023-01-18T21:39:08.142Z,-0.31
2023-01-18T21:44:48.765Z,-0.30
2023-01-18T21:50:29.543Z,-0.29
2023-01-18T21:55:53.460Z,-0.34
2023-01-18T22:01:20.930Z,-0.41
2023-01-18T22:06:43.524Z,-0.44
2023-01-18T22:12:06.225Z,-0.47
2023-01-18T22:17:28.540Z,-0.50
2023-01-18T22:22:51.317Z,-0.60
2023-01-18T22:28:13.635Z,-0.67
2023-01-18T22:33:36.347Z,-0.68
2023-01-18T22:38:58.724Z,-0.66
2023-01-18T22:44:22.163Z,-0.64
2023-01-18T22:49:44.488Z,-0.66
2023-01-18T22:55:07.217Z,-0.64
2023-01-18T23:00:30.209Z,-0.67
2023-01-18T23:05:54.376Z,-0.73
2023-01-18T23:11:30.788Z,-0.62
2023-01-18T23:17:11.735Z,-0.74
2023-01-18T23:22:34.036Z,-0.77
2023-01-18T23:27:56.491Z,-0.87
2023-01-18T23:33:18.775Z,-0.99
2023-01-18T23:38:59.168Z,-1.11
2023-01-18T23:44:39.446Z,-1.15
2023-01-18T23:50:19.434Z,-1.23
2023-01-18T23:55:41.778Z,-1.30
